Time;durP1;ratioP1;P1;durP2;ratioP2;P2;SDS_P1;SDS_P2;PMS_P1;PMS_P2;Temp;Humidity;BMP_temperature;BMP_pressure;BME280_temperature;BME280_humidity;BME280_pressure;Samples;Min_cycle;Max_cycle;Signal;HPM_P1;HPM_P2
2024/03/12 00:01:08;;;;;;;16.25;10.65;;;7.30;99.90;;;-144.05;90.77;56963.53;5032155;28;20092;-80
2024/03/12 00:03:35;;;;;;;14.63;10.05;;;6.90;99.90;;;-144.05;91.15;56940.16;5032546;28;20088;-79
2024/03/12 00:06:02;;;;;;;17.15;10.90;;;;;;;-144.05;91.05;56997.50;5033671;28;20029;-80
2024/03/12 00:08:28;;;;;;;16.88;11.00;;;6.90;99.90;;;-144.05;90.77;56972.03;5030637;28;20049;-81
2024/03/12 00:10:55;;;;;;;17.58;11.93;;;;;;;-144.05;91.16;56982.66;5030714;28;20482;-80
2024/03/12 00:13:21;;;;;;;15.57;11.35;;;7.10;99.90;;;-144.05;91.09;56989.00;5032244;28;20060;-80
2024/03/12 00:15:47;;;;;;;19.52;12.95;;;;;;;-144.05;90.87;56978.41;5030936;28;20029;-79
2024/03/12 00:18:13;;;;;;;20.15;13.20;;;6.90;99.90;;;-144.05;91.07;56955.03;5047059;28;20095;-82
2024/03/12 00:20:39;;;;;;;19.30;13.20;;;7.10;99.90;;;-144.05;90.89;56963.53;5032079;28;20275;-78
2024/03/12 00:23:09;;;;;;;21.85;12.35;;;6.50;99.90;;;-144.05;91.15;56967.78;5032372;28;20029;-80
2024/03/12 00:25:36;;;;;;;20.35;13.07;;;7.10;99.90;;;-144.05;91.34;56972.03;5032497;28;20067;-80
2024/03/12 00:28:05;;;;;;;21.45;13.32;;;6.80;99.90;;;-144.05;90.92;56961.41;5030726;28;20433;-80
2024/03/12 00:30:32;;;;;;;21.17;13.45;;;;;;;-144.05;91.49;56967.78;5046930;28;20040;-79
2024/03/12 00:32:59;;;;;;;24.83;15.07;;;6.90;99.90;;;-144.05;91.10;56982.66;5032230;28;20028;-80
2024/03/12 00:35:28;;;;;;;23.63;14.60;;;7.20;99.90;;;-144.05;90.98;56982.66;5031203;28;20025;-79
2024/03/12 00:37:57;;;;;;;21.42;14.23;;;;;;;-144.05;91.11;56972.03;5032953;28;20112;-79
2024/03/12 00:40:33;;;;;;;24.23;15.38;;;7.10;99.90;;;-144.05;91.25;56961.41;5036255;28;20139;-79
2024/03/12 00:43:00;;;;;;;23.83;15.02;;;;;;;-144.05;91.36;56984.78;5056767;28;20168;-79
2024/03/12 00:45:29;;;;;;;25.27;16.05;;;8.20;99.90;;;-144.05;92.04;56997.50;5055050;28;20097;-80
2024/03/12 00:47:57;;;;;;;29.67;17.48;;;6.40;99.90;;;-144.05;92.11;56963.53;5042013;28;20022;-80
2024/03/12 00:50:23;;;;;;;25.73;17.13;;;6.90;99.90;;;-144.05;92.34;56989.00;5033820;28;20406;-79
2024/03/12 00:52:53;;;;;;;26.10;17.13;;;7.00;99.90;;;-144.05;91.91;56999.63;5032156;28;20029;-77
2024/03/12 00:55:20;;;;;;;25.58;16.90;;;7.20;99.90;;;-144.05;91.61;56963.53;5030834;28;20045;-79
2024/03/12 00:57:48;;;;;;;24.30;16.02;;;8.00;99.90;;;-144.05;91.38;56980.53;5032171;28;20052;-81
2024/03/12 01:00:33;;;;;;;24.15;16.25;;;7.70;99.90;;;-144.05;91.07;56946.53;5032445;28;20021;-79
2024/03/12 01:03:01;;;;;;;23.40;16.03;;;;;;;-144.05;90.93;57001.75;5047889;28;20026;-78
2024/03/12 01:05:38;;;;;;;23.08;14.52;;;7.60;99.90;;;-144.05;90.75;56993.25;5032890;28;20310;-79
2024/03/12 01:08:05;;;;;;;24.70;15.57;;;8.70;99.90;;;-144.05;90.36;56999.63;5033025;28;20418;-77
2024/03/12 01:10:34;;;;;;;28.85;15.95;;;7.00;99.90;;;-144.05;90.35;56995.38;5032300;28;20033;-78
2024/03/12 01:13:05;;;;;;;28.48;17.20;;;7.80;99.90;;;-144.05;90.35;56967.78;5032469;28;20671;-79
2024/03/12 01:15:31;;;;;;;27.42;16.40;;;6.80;99.90;;;-144.05;90.08;56965.66;5033058;28;20064;-77
2024/03/12 01:17:58;;;;;;;25.85;16.98;;;;;;;-144.05;90.69;56967.78;5032281;28;20100;-78
2024/03/12 01:20:24;;;;;;;32.25;17.20;;;6.70;99.90;;;-144.05;90.15;56978.41;5031532;28;20117;-79
2024/03/12 01:22:53;;;;;;;27.83;17.02;;;6.90;99.90;;;-144.05;90.13;56991.13;5032565;28;20041;-78
2024/03/12 01:25:21;;;;;;;29.98;17.23;;;7.20;99.90;;;-144.05;90.43;56963.53;5032933;28;20487;-79
2024/03/12 01:27:47;;;;;;;31.08;18.67;;;7.60;99.90;;;-144.05;90.45;57008.13;5031006;28;20168;-80
2024/03/12 01:30:16;;;;;;;31.15;17.77;;;;;;;-144.05;90.42;56959.28;5032826;28;20033;-77
2024/03/12 01:32:47;;;;;;;31.77;19.13;;;6.60;99.90;;;-144.05;90.83;56980.53;5032792;28;20343;-79
2024/03/12 01:35:14;;;;;;;33.53;20.17;;;7.00;99.90;;;-144.05;90.50;56976.28;5033292;28;20021;-80
2024/03/12 01:37:45;;;;;;;33.13;19.23;;;;;;;-144.05;90.15;56997.50;5032247;28;20391;-79
2024/03/12 01:40:22;;;;;;;33.90;19.13;;;7.70;99.90;;;-144.05;90.11;56982.66;5031617;28;20026;-79
2024/03/12 01:42:56;;;;;;;32.88;19.40;;;7.70;99.90;;;-144.05;90.45;56963.53;5040170;28;20103;-79
2024/03/12 01:45:25;;;;;;;32.08;19.20;;;7.00;99.90;;;-144.05;90.64;56959.28;5048551;28;20048;-81
2024/03/12 01:47:54;;;;;;;32.47;19.13;;;7.70;99.90;;;-144.05;90.72;56976.28;5031609;28;20121;-79
2024/03/12 01:50:24;;;;;;;38.03;22.13;;;7.80;99.90;;;-144.05;90.99;56986.91;5031741;28;20466;-77
2024/03/12 01:52:59;;;;;;;34.33;19.77;;;7.70;99.90;;;-144.05;90.85;56972.03;5031242;28;20033;-78
2024/03/12 01:55:26;;;;;;;34.58;20.10;;;;;;;-144.05;90.69;56965.66;5033663;28;20108;-76
2024/03/12 01:57:53;;;;;;;36.85;20.33;;;7.40;99.90;;;-144.05;90.77;56984.78;5031616;28;20056;-78
2024/03/12 02:00:20;;;;;;;41.28;23.08;;;7.80;99.90;;;-144.05;91.76;56991.13;5036216;28;20040;-79
2024/03/12 02:02:52;;;;;;;45.33;24.13;;;7.80;99.90;;;-144.05;91.23;56972.03;5035444;28;20382;-79
2024/03/12 02:05:19;;;;;;;42.03;22.50;;;6.90;99.90;;;-144.05;90.83;56972.03;5037868;28;20028;-79
2024/03/12 02:07:51;;;;;;;41.42;22.48;;;7.80;99.90;;;-144.05;91.04;56972.03;5036747;28;20024;-79
2024/03/12 02:10:21;;;;;;;43.17;22.67;;;7.00;99.90;;;-144.05;90.83;56969.91;5037034;28;20033;-78
2024/03/12 02:12:48;;;;;;;38.05;21.95;;;;;;;-144.05;90.76;56946.53;5050939;28;20029;-80
2024/03/12 02:15:22;;;;;;;42.05;23.20;;;7.80;99.90;;;-144.05;90.96;56982.66;5036512;28;20120;-81
2024/03/12 02:17:51;;;;;;;42.93;23.17;;;;;;;-144.05;90.82;56986.91;5050566;28;20025;-80
2024/03/12 02:20:17;;;;;;;44.95;23.90;;;6.90;99.90;;;-144.05;91.51;56993.25;5048613;28;20033;-82
2024/03/12 02:22:44;;;;;;;44.85;24.67;;;;;;;-144.05;91.88;56986.91;5038808;28;20099;-82
2024/03/12 02:25:10;;;;;;;46.22;24.02;;;6.90;99.90;;;-144.05;92.66;56980.53;5039387;28;20152;-81
2024/03/12 02:27:37;;;;;;;52.55;25.58;;;6.90;99.90;;;-144.05;92.61;56986.91;5039436;28;20040;-80
2024/03/12 02:30:08;;;;;;;47.53;23.98;;;7.80;99.90;;;-144.05;92.85;56986.91;5042039;28;20033;-81
2024/03/12 02:32:35;;;;;;;51.75;25.98;;;6.90;99.90;;;-144.05;92.69;56997.50;5038664;28;20037;-80
2024/03/12 02:35:00;;;;;;;58.33;27.80;;;6.70;99.90;;;-144.05;93.71;56963.53;5038541;28;20087;-81
2024/03/12 02:37:27;;;;;;;61.08;29.85;;;;;;;-144.05;93.53;56989.00;5040761;28;20033;-80
2024/03/12 02:39:53;;;;;;;61.22;31.67;;;;;;;-144.05;93.27;56984.78;5038092;28;20080;-79
2024/03/12 02:42:19;;;;;;;65.28;32.67;;;7.00;99.90;;;-144.05;94.08;56989.00;5039032;28;20075;-82
2024/03/12 02:44:45;;;;;;;65.20;32.67;;;;;;;-144.05;94.80;56980.53;5040891;28;20041;-79
2024/03/12 02:47:11;;;;;;;61.55;31.33;;;7.00;99.90;;;-144.05;94.18;56995.38;5039274;28;20025;-78
2024/03/12 02:49:37;;;;;;;75.88;35.30;;;;;;;-144.05;94.75;57008.13;5035085;28;20415;-77
2024/03/12 02:52:04;;;;;;;82.22;36.20;;;7.60;99.90;;;-144.05;95.34;57018.75;5034862;28;20124;-78
2024/03/12 02:54:30;;;;;;;86.43;36.97;;;6.70;99.90;;;-144.05;95.00;57020.88;5049105;28;20040;-77
2024/03/12 02:56:56;;;;;;;81.70;36.42;;;7.00;99.90;;;-144.05;94.87;56989.00;5035510;28;20390;-79
2024/03/12 02:59:27;;;;;;;87.32;37.95;;;;;;;-144.05;94.50;57001.75;5052019;28;20030;-78
2024/03/12 03:01:55;;;;;;;83.90;36.05;;;;;;;-144.05;93.70;56999.63;5041399;28;20555;-79
2024/03/12 03:04:22;;;;;;;84.70;36.63;;;;;;;-144.05;94.38;56967.78;5035055;28;20370;-77
2024/03/12 03:06:51;;;;;;;78.18;38.38;;;;;;;-144.05;93.99;56989.00;5035476;28;20109;-79
2024/03/12 03:09:17;;;;;;;82.95;35.88;;;6.70;99.90;;;-144.05;94.13;56986.91;5037643;28;20060;-82
2024/03/12 03:11:46;;;;;;;87.15;38.08;;;;;;;-144.05;94.13;56967.78;5035879;28;20057;-81
2024/03/12 03:14:12;;;;;;;82.85;35.75;;;;;;;-144.05;93.84;57006.00;5037464;28;20064;-80
2024/03/12 03:16:38;;;;;;;77.22;35.72;;;6.90;99.90;;;-144.05;94.28;57010.25;5037908;28;20037;-79
2024/03/12 03:19:05;;;;;;;82.82;38.35;;;;;;;-144.05;94.62;56969.91;5035639;28;20172;-79
2024/03/12 03:21:31;;;;;;;91.75;39.22;;;6.80;99.90;;;-144.05;94.59;56989.00;5035846;28;20029;-78
2024/03/12 03:23:58;;;;;;;85.32;35.28;;;6.60;99.90;;;-144.05;94.76;56993.25;5035196;28;20100;-78
2024/03/12 03:26:24;;;;;;;82.45;38.75;;;6.70;99.90;;;-144.05;94.49;56952.91;5036437;28;20024;-79
2024/03/12 03:28:50;;;;;;;88.40;38.80;;;;;;;-144.05;94.97;56993.25;5034981;28;20022;-78
2024/03/12 03:31:16;;;;;;;91.65;39.40;;;6.90;99.90;;;-144.05;95.15;57018.75;5035161;28;20041;-78
2024/03/12 03:33:45;;;;;;;87.88;39.55;;;6.80;99.90;;;-144.05;94.94;56984.78;5034193;28;20033;-78
2024/03/12 03:36:16;;;;;;;102.07;42.30;;;7.00;99.90;;;-144.05;94.72;57001.75;5035672;28;20017;-78
2024/03/12 03:38:43;;;;;;;108.15;43.03;;;6.60;99.90;;;-144.05;94.97;56976.28;5034937;28;20014;-79
2024/03/12 03:41:10;;;;;;;100.22;40.22;;;6.70;99.90;;;-144.05;94.84;56969.91;5035662;28;20025;-76
2024/03/12 03:43:36;;;;;;;104.22;42.33;;;6.90;99.90;;;-144.05;94.58;56993.25;5036043;28;20115;-79
2024/03/12 03:46:03;;;;;;;103.28;41.95;;;6.60;99.90;;;-144.05;94.53;57003.88;5035221;28;20036;-78
2024/03/12 03:48:30;;;;;;;101.53;41.63;;;7.00;99.90;;;-144.05;94.46;56989.00;5036446;28;20047;-79
2024/03/12 03:50:56;;;;;;;100.28;42.40;;;7.40;99.90;;;-144.05;94.02;56991.13;5033699;28;20044;-79
2024/03/12 03:53:22;;;;;;;101.63;41.13;;;6.30;99.90;;;-144.05;94.04;56993.25;5035075;28;20026;-80
2024/03/12 03:55:49;;;;;;;91.15;40.33;;;;;;;-144.05;94.44;56999.63;5035144;28;20025;-77
2024/03/12 03:58:16;;;;;;;91.75;39.78;;;;;;;-144.05;94.02;56984.78;5035828;28;20040;-78
2024/03/12 04:00:42;;;;;;;99.03;39.88;;;6.90;99.90;;;-144.05;94.04;56993.25;5034711;28;20056;-79
2024/03/12 04:03:09;;;;;;;87.45;36.75;;;6.90;99.90;;;-144.05;94.04;56982.66;5033663;28;20620;-79
2024/03/12 04:05:35;;;;;;;81.93;36.45;;;6.50;99.90;;;-144.05;94.28;56980.53;5034801;28;20059;-79
2024/03/12 04:08:02;;;;;;;79.70;35.60;;;6.70;99.90;;;-144.05;94.30;56984.78;5035176;28;20021;-79
2024/03/12 04:10:30;;;;;;;87.78;35.42;;;6.70;99.90;;;-144.05;94.21;57006.00;5034446;28;20052;-80
2024/03/12 04:12:56;;;;;;;82.63;35.00;;;6.30;99.90;;;-144.05;94.52;56980.53;5033266;28;20501;-80
2024/03/12 04:15:23;;;;;;;80.03;36.53;;;7.40;99.90;;;-144.05;94.46;56993.25;5036103;28;20389;-77
2024/03/12 04:17:50;;;;;;;74.00;33.17;;;;;;;-144.05;94.46;56972.03;5034779;28;20018;-80
2024/03/12 04:20:19;;;;;;;73.05;33.60;;;;;;;-144.05;94.52;56965.66;5034295;28;20053;-78
2024/03/12 04:22:45;;;;;;;72.07;33.42;;;7.30;99.90;;;-144.05;94.53;57006.00;5034671;28;20390;-79
2024/03/12 04:25:15;;;;;;;72.30;34.00;;;7.50;99.90;;;-144.05;94.28;56976.28;5033686;28;20029;-79
2024/03/12 04:27:41;;;;;;;68.35;31.08;;;;;;;-144.05;94.04;56997.50;5035327;28;20037;-79
2024/03/12 04:30:11;;;;;;;59.25;29.90;;;7.40;99.90;;;-144.05;93.75;56982.66;5033195;28;20049;-79
2024/03/12 04:32:40;;;;;;;67.50;30.50;;;7.10;99.90;;;-144.05;93.63;56980.53;5032060;28;20056;-80
2024/03/12 04:35:09;;;;;;;65.72;30.65;;;6.90;99.90;;;-144.05;94.52;56991.13;5033527;28;20398;-79
2024/03/12 04:37:36;;;;;;;66.13;30.95;;;7.10;99.90;;;-144.05;93.90;56980.53;5032974;28;20028;-80
2024/03/12 04:40:07;;;;;;;67.63;30.35;;;6.60;99.90;;;-144.05;94.03;56952.91;5034725;28;20044;-79
2024/03/12 04:42:38;;;;;;;57.70;29.83;;;7.40;99.90;;;-144.05;93.88;56989.00;5046506;28;20040;-79
2024/03/12 04:45:07;;;;;;;60.83;29.45;;;7.10;99.90;;;-144.05;93.88;56982.66;5035625;28;20029;-78
2024/03/12 04:47:37;;;;;;;61.80;29.08;;;7.40;99.90;;;-144.05;94.31;56965.66;5036326;28;20046;-79
2024/03/12 04:50:04;;;;;;;51.38;26.40;;;6.20;99.90;;;-144.05;94.64;56997.50;5033663;28;20457;-78
2024/03/12 04:52:33;;;;;;;51.67;27.05;;;6.50;99.90;;;-144.05;94.33;56999.63;5037141;28;20025;-79
2024/03/12 04:54:59;;;;;;;49.33;25.25;;;6.30;99.90;;;-144.05;93.84;56986.91;5035370;28;20489;-79
2024/03/12 04:57:25;;;;;;;43.50;23.92;;;6.50;99.90;;;-144.05;94.03;56989.00;5036784;28;20029;-80
2024/03/12 04:59:51;;;;;;;49.33;24.42;;;7.70;99.90;;;-144.05;94.36;56972.03;5040165;28;20661;-80
2024/03/12 05:02:17;;;;;;;45.90;23.88;;;6.10;99.90;;;-144.05;94.41;57001.75;5036369;28;20057;-78
2024/03/12 05:04:43;;;;;;;46.08;23.80;;;7.90;99.90;;;-144.05;93.61;56980.53;5035438;28;20044;-78
2024/03/12 05:07:09;;;;;;;43.03;22.77;;;;;;;-144.05;93.65;57001.75;5046381;28;20025;-79
2024/03/12 05:09:35;;;;;;;42.28;21.80;;;6.60;99.90;;;-144.05;94.38;56991.13;5035208;28;20033;-79
2024/03/12 05:12:01;;;;;;;43.47;22.27;;;;;;;-144.05;94.52;56984.78;5035327;28;20467;-77
2024/03/12 05:14:27;;;;;;;39.20;22.58;;;;;;;-144.05;94.58;56991.13;5037436;28;20116;-78
2024/03/12 05:16:54;;;;;;;36.50;21.00;;;7.10;99.90;;;-144.05;95.12;56980.53;5034225;28;20538;-79
2024/03/12 05:19:20;;;;;;;37.15;21.42;;;6.70;99.90;;;-144.05;95.01;56995.38;5038352;28;20490;-80
2024/03/12 05:21:47;;;;;;;36.92;19.98;;;;;;;-144.05;94.88;56993.25;5036052;28;20017;-79
2024/03/12 05:24:17;;;;;;;39.22;21.27;;;6.90;99.90;;;-144.05;95.49;56984.78;5035318;28;20057;-78
2024/03/12 05:26:49;;;;;;;33.75;19.45;;;7.20;99.90;;;-144.05;95.35;56980.53;5035841;28;20483;-79
2024/03/12 05:29:15;;;;;;;34.30;19.58;;;;;;;-144.05;96.11;56997.50;5034381;28;20030;-78
2024/03/12 05:31:42;;;;;;;32.97;18.73;;;;;;;-144.05;95.76;56980.53;5036808;28;20036;-76
2024/03/12 05:34:27;;;;;;;40.65;20.20;;;;;;;-144.05;96.16;56989.00;5037424;28;20083;-77
2024/03/12 05:37:02;;;;;;;33.67;20.05;;;6.60;99.90;;;-144.05;95.83;56993.25;5039305;28;20148;-79
2024/03/12 05:39:47;;;;;;;35.37;20.43;;;;;;;-144.05;96.24;56982.66;5041235;28;20035;-79
2024/03/12 05:50:42;;;;;;;33.63;18.92;;;7.00;99.90;;;-144.05;96.06;57001.75;5040573;28;20037;-77
2024/03/12 05:53:11;;;;;;;38.30;20.60;;;6.90;99.90;;;-144.05;96.12;56986.91;5054405;28;20030;-77
2024/03/12 05:55:40;;;;;;;35.03;21.65;;;;;;;-144.05;96.78;56997.50;5036148;28;20573;-79
2024/03/12 05:58:06;;;;;;;39.15;22.45;;;6.90;99.90;;;-144.05;96.47;56969.91;5039332;28;20025;-76
2024/03/12 06:00:32;;;;;;;33.50;21.67;;;6.40;99.90;;;-144.05;96.64;56993.25;5040745;28;20143;-77
2024/03/12 06:02:58;;;;;;;40.28;22.70;;;;;;;-144.05;97.05;56997.50;5039533;28;20040;-78
2024/03/12 06:05:26;;;;;;;40.72;22.48;;;6.70;99.90;;;-144.05;96.79;57010.25;5041299;28;20041;-80
2024/03/12 06:07:52;;;;;;;39.63;24.17;;;6.70;99.90;;;-144.05;97.28;56972.03;5034310;28;20060;-80
2024/03/12 06:10:18;;;;;;;40.90;23.80;;;7.10;99.90;;;-144.05;97.07;56982.66;5037575;28;20083;-79
2024/03/12 06:12:44;;;;;;;45.55;24.80;;;7.00;99.90;;;-144.05;97.31;56982.66;5039948;28;20505;-80
2024/03/12 06:15:10;;;;;;;45.50;24.58;;;6.70;99.90;;;-144.05;97.52;56999.63;5034064;28;20021;-79
2024/03/12 06:17:36;;;;;;;46.92;25.88;;;7.10;99.90;;;-144.05;97.03;56991.13;5034010;28;20025;-79
2024/03/12 06:20:06;;;;;;;47.67;25.50;;;6.90;99.90;;;-144.05;97.23;56978.41;5037554;28;20075;-79
2024/03/12 06:22:32;;;;;;;44.47;25.23;;;6.80;99.90;;;-144.05;97.12;56980.53;5065567;28;20021;-80
2024/03/12 06:25:00;;;;;;;39.97;24.08;;;7.20;99.90;;;-144.05;96.99;56986.91;5073974;28;20024;-79
2024/03/12 06:27:26;;;;;;;43.13;25.38;;;;;;;-144.05;97.12;56974.16;5056817;28;20058;-83
2024/03/12 06:29:53;;;;;;;40.65;23.77;;;;;;;-144.05;96.69;56995.38;5040964;28;20131;-82
2024/03/12 06:32:20;;;;;;;44.70;23.73;;;;;;;-144.05;97.54;56974.16;5040606;28;20063;-82
2024/03/12 06:34:48;;;;;;;40.90;23.45;;;7.00;99.90;;;-144.05;97.13;56982.66;5041143;28;20021;-81
2024/03/12 06:37:15;;;;;;;37.25;23.65;;;;;;;-144.05;97.30;57006.00;5041927;28;20021;-80
2024/03/12 06:39:41;;;;;;;40.03;24.08;;;7.00;99.90;;;-144.05;96.92;56976.28;5043472;28;20032;-81
2024/03/12 06:42:08;;;;;;;34.03;21.33;;;6.20;99.90;;;-144.05;96.85;56989.00;5041832;28;20556;-80
2024/03/12 06:44:42;;;;;;;39.60;22.13;;;7.20;99.90;;;-144.05;96.70;56997.50;5040131;28;20029;-79
2024/03/12 06:47:09;;;;;;;36.72;22.30;;;7.20;99.90;;;-144.05;96.57;56978.41;5042293;28;20040;-78
2024/03/12 06:49:38;;;;;;;37.03;21.85;;;7.30;99.90;;;-144.05;96.52;56978.41;5033834;28;20033;-79
2024/03/12 06:52:06;;;;;;;35.92;21.73;;;;;;;-144.05;96.29;56999.63;5041075;28;20025;-77
2024/03/12 06:54:34;;;;;;;37.83;21.52;;;7.10;99.90;;;-144.05;96.58;56995.38;5040777;28;20037;-81
2024/03/12 06:57:03;;;;;;;38.30;24.02;;;;;;;-144.05;96.26;56986.91;5039440;28;20029;-81
2024/03/12 06:59:30;;;;;;;37.67;21.58;;;;;;;-144.05;96.05;56991.13;5042885;28;20036;-81
2024/03/12 07:01:56;;;;;;;35.83;21.08;;;6.90;99.90;;;-144.05;96.03;57008.13;5040510;28;20017;-80
2024/03/12 07:04:23;;;;;;;38.35;21.60;;;7.40;99.90;;;-144.05;95.96;56969.91;5043581;28;20033;-79
2024/03/12 07:06:54;;;;;;;36.47;21.42;;;7.60;99.90;;;-144.05;95.89;56982.66;5039843;28;20029;-81
2024/03/12 07:09:26;;;;;;;36.15;22.40;;;6.90;99.90;;;-144.05;95.91;56984.78;5042815;28;20502;-79
2024/03/12 07:11:58;;;;;;;31.27;20.27;;;7.00;99.90;;;-144.05;95.42;56997.50;5040789;28;20017;-79
2024/03/12 07:14:27;;;;;;;38.20;20.83;;;;;;;-144.05;95.52;56997.50;5041988;28;20080;-80
2024/03/12 07:16:56;;;;;;;35.78;21.30;;;6.70;99.90;;;-144.05;95.36;57012.38;5039214;28;20033;-77
2024/03/12 07:19:22;;;;;;;32.17;19.55;;;7.10;99.90;;;-144.05;95.73;56989.00;5051936;28;20463;-80
2024/03/12 07:21:50;;;;;;;30.88;19.55;;;6.80;99.90;;;-144.05;95.42;57027.25;5050635;28;20028;-80
2024/03/12 07:24:17;;;;;;;28.52;17.35;;;6.70;99.90;;;-144.05;95.53;56963.53;5040699;28;20029;-78
2024/03/12 07:26:49;;;;;;;29.83;18.15;;;7.20;99.90;;;-144.05;95.14;57006.00;5036130;28;20399;-77
2024/03/12 07:29:15;;;;;;;33.50;19.88;;;;;;;-144.05;94.92;56986.91;5038469;28;20112;-79
2024/03/12 07:31:41;;;;;;;29.50;18.48;;;7.30;99.90;;;-144.05;94.80;56976.28;5042175;28;20027;-79
2024/03/12 07:34:08;;;;;;;31.33;19.38;;;;;;;-144.05;94.80;56978.41;5040361;28;20108;-80
2024/03/12 07:36:34;;;;;;;35.22;20.60;;;6.40;99.90;;;-144.05;94.84;56989.00;5046827;28;20106;-78
2024/03/12 07:39:08;;;;;;;35.20;21.02;;;;;;;-144.05;94.94;56995.38;5039473;28;20028;-79
2024/03/12 07:41:39;;;;;;;36.83;20.50;;;7.00;99.90;;;-144.05;95.12;56989.00;5038762;28;20036;-80
2024/03/12 07:44:06;;;;;;;34.38;20.73;;;6.90;99.90;;;-144.05;95.25;57003.88;5038668;28;20018;-81
2024/03/12 07:46:34;;;;;;;30.60;20.05;;;6.30;99.90;;;-144.05;95.48;56995.38;5042548;28;20541;-76
2024/03/12 07:49:00;;;;;;;36.00;19.98;;;;;;;-144.05;94.75;56980.53;5038472;28;20025;-80
2024/03/12 07:51:26;;;;;;;30.98;19.92;;;6.90;99.90;;;-144.05;94.38;56997.50;5046800;28;20394;-80
2024/03/12 07:53:54;;;;;;;33.03;19.85;;;6.40;99.90;;;-144.05;94.03;56997.50;5041447;28;20030;-81
2024/03/12 07:56:22;;;;;;;35.63;20.23;;;7.60;99.90;;;-144.05;95.09;56989.00;5055019;28;20031;-81
2024/03/12 07:58:48;;;;;;;34.30;20.08;;;6.20;99.90;;;-144.05;95.09;56980.53;5048607;28;20084;-78
2024/03/12 08:01:14;;;;;;;32.58;20.42;;;6.70;99.90;;;-144.05;94.80;56974.16;5039377;28;20030;-82
2024/03/12 08:03:41;;;;;;;35.05;19.42;;;7.20;99.90;;;-144.05;95.59;56982.66;5049704;28;20460;-80
2024/03/12 08:06:08;;;;;;;34.33;19.33;;;7.30;99.90;;;-144.05;95.76;56963.53;5038426;28;20473;-78
2024/03/12 08:08:33;;;;;;;31.00;19.63;;;6.90;99.90;;;-144.05;95.81;56995.38;5047666;28;20040;-81
2024/03/12 08:10:59;;;;;;;33.53;20.10;;;6.70;99.90;;;-144.05;95.73;56995.38;5045224;28;20544;-83
2024/03/12 08:13:26;;;;;;;34.25;19.05;;;7.40;99.90;;;-144.05;95.27;56980.53;5041239;28;20029;-82
2024/03/12 08:15:51;;;;;;;31.58;19.38;;;6.80;99.90;;;-144.05;95.19;57014.50;5049208;28;20018;-82
2024/03/12 08:18:17;;;;;;;32.08;18.77;;;6.90;99.90;;;-144.05;95.50;56984.78;5046996;28;20036;-83
2024/03/12 08:20:45;;;;;;;33.30;19.83;;;7.10;99.90;;;-144.05;95.65;57010.25;5042386;28;20025;-84
2024/03/12 08:23:13;;;;;;;27.80;17.02;;;6.70;99.90;;;-144.05;95.79;56969.91;5037351;28;20040;-80
2024/03/12 08:25:39;;;;;;;27.40;16.02;;;;;;;-144.05;95.59;56993.25;5040492;28;20486;-81
2024/03/12 08:28:05;;;;;;;29.67;17.55;;;6.90;99.90;;;-144.05;95.67;56976.28;5038340;28;20021;-80
2024/03/12 08:30:33;;;;;;;31.30;18.80;;;;;;;-144.05;95.94;56974.16;5036995;28;20080;-82
2024/03/12 08:32:59;;;;;;;25.75;16.25;;;;;;;-144.05;96.13;56995.38;5036990;28;20026;-81
2024/03/12 08:35:25;;;;;;;26.05;17.05;;;;;;;-144.05;96.30;57018.75;5040472;28;20127;-78
2024/03/12 08:37:51;;;;;;;32.85;18.13;;;6.90;99.90;;;-144.05;96.04;56978.41;5054421;28;20367;-78
2024/03/12 08:40:17;;;;;;;35.38;20.08;;;;;;;-144.05;96.71;57001.75;5038059;28;20079;-81
2024/03/12 08:42:44;;;;;;;29.90;19.30;;;7.20;99.90;;;-144.05;96.32;57006.00;5034106;28;20021;-81
2024/03/12 08:45:12;;;;;;;32.95;20.42;;;6.70;99.90;;;-144.05;96.67;56993.25;5037619;28;20031;-81
2024/03/12 08:47:38;;;;;;;38.70;21.85;;;7.00;99.90;;;-144.05;96.29;57003.88;5050421;28;20021;-82
2024/03/12 08:50:05;;;;;;;38.97;22.38;;;6.90;99.90;;;-144.05;96.71;56989.00;5033011;28;20064;-84
2024/03/12 08:52:31;;;;;;;39.45;22.25;;;;;;;-144.05;96.29;56997.50;5042840;28;20036;-81
2024/03/12 08:54:57;;;;;;;40.72;22.67;;;6.40;99.90;;;-144.05;96.52;56995.38;5048290;28;20021;-82
2024/03/12 08:57:25;;;;;;;39.92;22.92;;;;;;;-144.05;96.08;56999.63;5040760;28;20033;-81
2024/03/12 08:59:51;;;;;;;40.90;23.48;;;6.80;99.90;;;-144.05;96.57;57001.75;5039570;28;20079;-83
2024/03/12 09:02:18;;;;;;;42.10;24.40;;;;;;;-144.05;95.93;56982.66;5045656;28;20037;-82
2024/03/12 09:04:44;;;;;;;40.67;22.75;;;7.40;99.90;;;-144.05;95.56;56997.50;5062192;28;20029;-84
2024/03/12 09:07:10;;;;;;;44.13;24.15;;;6.80;99.90;;;-144.05;95.39;56976.28;5035244;28;20035;-83
2024/03/12 09:09:38;;;;;;;40.88;22.85;;;7.00;99.90;;;-144.05;95.56;56982.66;5062118;28;20033;-84
2024/03/12 09:12:04;;;;;;;43.15;23.92;;;6.80;99.90;;;-144.05;95.70;57001.75;5043315;28;20063;-83
2024/03/12 09:14:30;;;;;;;43.42;23.23;;;;;;;-144.05;95.60;57001.75;5046382;28;20435;-84
2024/03/12 09:16:57;;;;;;;48.88;24.95;;;6.70;99.90;;;-144.05;96.67;56984.78;5054226;28;20024;-83
2024/03/12 09:19:24;;;;;;;47.63;23.10;;;6.90;99.90;;;-144.05;97.28;57018.75;5057014;28;20034;-84
2024/03/12 09:21:51;;;;;;;41.72;21.88;;;6.80;99.90;;;-144.05;97.12;57010.25;5055233;28;20029;-84
2024/03/12 09:24:18;;;;;;;44.47;23.45;;;6.80;99.90;;;-144.05;96.58;56978.41;5048340;28;20025;-81
2024/03/12 09:26:45;;;;;;;42.92;23.08;;;;;;;-144.05;96.37;56976.28;5041100;28;20021;-82
2024/03/12 09:29:13;;;;;;;40.88;22.23;;;7.90;99.90;;;-144.05;96.32;56999.63;5038522;28;20034;-82
2024/03/12 09:31:41;;;;;;;44.30;23.75;;;;;;;-144.05;97.13;56999.63;5042350;28;20036;-82
2024/03/12 09:34:10;;;;;;;43.15;22.13;;;;;;;-144.05;95.55;56976.28;5046214;28;20048;-79
2024/03/12 09:36:36;;;;;;;44.83;22.23;;;;;;;-144.05;94.62;56995.38;5038204;28;20029;-79
2024/03/12 09:39:05;;;;;;;40.90;21.35;;;;;;;-144.05;94.59;56963.53;5040088;28;20056;-79
2024/03/12 09:41:31;;;;;;;38.67;21.92;;;7.00;99.90;;;-144.05;93.98;56997.50;5045220;28;20358;-79
2024/03/12 09:43:57;;;;;;;41.50;20.70;;;6.80;99.90;;;-144.05;94.23;56997.50;5042031;28;20036;-81
2024/03/12 09:46:24;;;;;;;46.45;21.00;;;7.00;99.90;;;-144.05;93.98;56993.25;5043490;28;20025;-79
2024/03/12 09:48:51;;;;;;;42.63;21.48;;;7.00;99.90;;;-144.05;94.04;56989.00;5042624;28;20029;-80
2024/03/12 09:51:20;;;;;;;44.95;22.13;;;;;;;-144.05;94.12;56965.66;5041348;28;20206;-80
2024/03/12 09:53:46;;;;;;;40.67;20.63;;;7.40;99.90;;;-144.05;93.81;56972.03;5042231;28;20047;-81
2024/03/12 09:56:16;;;;;;;42.58;20.13;;;6.40;99.90;;;-144.05;93.66;57001.75;5041975;28;20459;-81
2024/03/12 09:58:44;;;;;;;41.80;19.77;;;7.50;99.90;;;-144.05;93.15;56989.00;5044294;28;20486;-79
2024/03/12 10:01:12;;;;;;;41.42;19.35;;;7.30;99.90;;;-144.05;93.45;57010.25;5040840;28;20037;-80
2024/03/12 10:03:38;;;;;;;34.20;19.60;;;7.40;99.90;;;-144.05;93.30;56991.13;5059089;28;20025;-82
2024/03/12 10:06:05;;;;;;;39.78;18.75;;;7.40;99.90;;;-144.05;92.96;56989.00;5056279;28;20041;-80
2024/03/12 10:08:32;;;;;;;39.58;20.13;;;;;;;-144.05;93.28;56997.50;5057075;28;20035;-80
2024/03/12 10:11:02;;;;;;;40.38;19.27;;;6.40;99.90;;;-144.05;93.37;57016.63;5044864;28;20026;-79
2024/03/12 10:13:28;;;;;;;38.22;19.17;;;6.80;99.90;;;-144.05;93.62;56982.66;5051292;28;20021;-79
2024/03/12 10:15:58;;;;;;;40.50;19.85;;;;;;;-144.05;93.56;56969.91;5046908;28;20028;-82
2024/03/12 10:18:26;;;;;;;41.90;21.38;;;6.30;99.90;;;-144.05;93.32;56997.50;5037969;28;20025;-79
2024/03/12 10:21:02;;;;;;;36.75;21.08;;;6.80;99.90;;;-144.05;93.04;56984.78;5040488;28;20056;-81
2024/03/12 10:23:31;;;;;;;;;;;7.40;99.90;;;-144.05;93.10;57016.63;5045026;28;20078;-80
2024/03/12 10:26:16;;;;;;;34.22;19.50;;;7.50;99.90;;;-144.05;93.20;56982.66;5045934;28;20042;-81